Isle of Coll, United Kingdom
Current Conditions -  °F | °C
As of 2:20 AM on Monday 26 Jan 2015 (Local Time) from EGPU Reporting Station
Few Clouds Few Clouds  
Wind Chill: 34°   Ceiling: Unl
Heat Index: 43°   Visibility: 6mi
Dew Point: 37°   Wind: 20mph
Humidity: 81%   Direction: 260°W
Pressure: 29.97"   Gusts: NA
Location:  56.62°N, 6.53°W
Report Text: EGPU 260220Z AUTO 26017KT 9999 FEW037/// 06/03 Q1015 RERA
Loading
Personal Weather Stations






























Interactive Weather Map New forecast layout! Learn more

10-Day Weather Forecast

Advertisements
Track Severe Weather on mobile